Time;durP1;ratioP1;P1;durP2;ratioP2;P2;SDS_P1;SDS_P2;PMS_P1;PMS_P2;Temp;Humidity;BMP_temperature;BMP_pressure;BME280_temperature;BME280_humidity;BME280_pressure;Samples;Min_cycle;Max_cycle;Signal;HPM_P1;HPM_P2
2020/12/07 00:00:36;;;;;;;5.57;4.97;;;;;;;5.90;100.00;96570.72;5035072;28;20252;-92
2020/12/07 00:03:03;;;;;;;8.87;6.20;;;;;;;5.89;100.00;96574.28;5035188;28;20213;-90
2020/12/07 00:05:34;;;;;;;9.20;5.13;;;;;;;5.90;100.00;96560.28;5035002;28;20213;-92
2020/12/07 00:08:03;;;;;;;7.97;6.77;;;;;;;5.85;100.00;96559.78;5035211;28;20655;-91
2020/12/07 00:10:33;;;;;;;7.43;6.10;;;;;;;5.84;100.00;96568.56;5034994;28;20225;-92
2020/12/07 00:13:01;;;;;;;6.67;6.03;;;;;;;5.86;100.00;96579.72;5035207;28;20195;-91
2020/12/07 00:15:28;;;;;;;7.17;5.70;;;;;;;5.79;100.00;96570.75;5034488;28;20674;-91
2020/12/07 00:17:55;;;;;;;7.70;6.53;;;;;;;5.81;100.00;96571.44;5034605;28;20209;-92
2020/12/07 00:20:22;;;;;;;7.97;6.60;;;;;;;5.87;100.00;96567.50;5034222;28;20199;-92
2020/12/07 00:23:06;;;;;;;11.80;7.40;;;;;;;5.86;100.00;96565.88;5034634;28;20214;-91
2020/12/07 00:25:35;;;;;;;9.47;6.57;;;;;;;5.87;100.00;96570.94;5034528;28;20220;-92
2020/12/07 00:28:02;;;;;;;7.97;7.13;;;;;;;5.79;100.00;96570.75;5034548;28;20198;-91
2020/12/07 00:30:29;;;;;;;10.33;6.27;;;;;;;5.80;100.00;96564.56;5034062;28;20195;-91
2020/12/07 00:32:56;;;;;;;11.10;7.47;;;;;;;5.78;100.00;96560.41;5034555;28;20627;-92
2020/12/07 00:35:29;;;;;;;6.93;6.10;;;;;;;5.77;100.00;96559.59;5034429;28;20698;-91
2020/12/07 00:37:56;;;;;;;8.03;6.27;;;;;;;5.73;100.00;96551.19;5034528;28;20203;-91
2020/12/07 00:40:27;;;;;;;6.83;6.13;;;;;;;5.75;100.00;96561.50;5033984;28;20198;-91
2020/12/07 00:42:57;;;;;;;7.03;5.90;;;;;;;5.72;100.00;96551.31;5034605;28;20207;-92
2020/12/07 00:45:24;;;;;;;8.50;6.37;;;;;;;5.69;100.00;96544.56;5034022;28;20637;-93
2020/12/07 00:47:51;;;;;;;7.60;5.77;;;;;;;5.65;100.00;96550.13;5034185;28;20256;-91
2020/12/07 00:50:27;;;;;;;7.03;5.87;;;;;;;5.64;100.00;96544.06;5033599;28;20281;-93
2020/12/07 00:52:54;;;;;;;9.37;5.10;;;;;;;5.68;100.00;96536.84;5033909;28;20206;-93
2020/12/07 00:55:28;;;;;;;7.27;5.67;;;;;;;5.64;100.00;96531.03;5033871;28;20218;-92
2020/12/07 00:58:01;;;;;;;7.77;5.33;;;;;;;5.64;100.00;96532.81;5034211;28;20202;-91
2020/12/07 01:00:27;;;;;;;7.83;5.27;;;;;;;5.65;100.00;96532.72;5033751;28;20261;-91
2020/12/07 01:02:57;;;;;;;5.17;4.63;;;;;;;5.62;100.00;96526.91;5034001;28;20261;-93
2020/12/07 01:05:24;;;;;;;7.10;5.50;;;;;;;5.62;100.00;96519.09;5034058;28;20210;-92
2020/12/07 01:07:54;;;;;;;7.60;4.70;;;;;;;5.61;100.00;96514.81;5033800;28;20667;-92
2020/12/07 01:10:35;;;;;;;5.00;4.50;;;;;;;5.61;100.00;96514.81;5033987;28;20202;-92
2020/12/07 01:13:02;;;;;;;5.70;5.17;;;;;;;5.62;100.00;96519.09;5033676;28;20280;-92
2020/12/07 01:15:28;;;;;;;8.73;4.57;;;;;;;5.52;100.00;96525.97;5033840;28;20276;-93
2020/12/07 01:17:55;;;;;;;6.20;4.83;;;;;;;5.51;100.00;96513.88;5033487;28;20198;-92
2020/12/07 01:20:28;;;;;;;5.53;4.40;;;;;;;5.51;100.00;96511.25;5033455;28;20669;-91
2020/12/07 01:22:55;;;;;;;5.03;4.53;;;;;;;5.61;100.00;96507.84;5033538;28;20249;-91
2020/12/07 01:25:25;;;;;;;4.30;3.90;;;;;;;5.55;100.00;96508.31;5033244;28;20203;-93
2020/12/07 01:27:59;;;;;;;5.33;3.90;;;;;;;5.54;100.00;96500.59;5033554;28;20210;-93
2020/12/07 01:30:29;;;;;;;5.30;3.93;;;;;;;5.46;100.00;96493.38;5033220;28;20203;-93
2020/12/07 01:32:56;;;;;;;4.83;3.67;;;;;;;5.45;100.00;96491.75;5032744;28;20198;-92
2020/12/07 01:35:25;;;;;;;4.97;4.47;;;;;;;5.47;100.00;96505.47;5033418;28;20665;-93
2020/12/07 01:37:52;;;;;;;5.97;3.83;;;;;;;5.51;100.00;96504.28;5033274;28;20297;-91
2020/12/07 01:40:22;;;;;;;5.67;3.93;;;;;;;5.44;100.00;96501.34;5033294;28;20225;-92
2020/12/07 01:42:59;;;;;;;8.77;4.10;;;;;;;5.48;100.00;96492.31;5033400;28;20198;-92
2020/12/07 01:45:41;;;;;;;6.10;4.00;;;;;;;5.49;100.00;96490.53;5033148;28;20272;-92
2020/12/07 01:48:11;;;;;;;4.27;3.87;;;;;;;5.45;100.00;96497.78;5033500;28;20256;-92
2020/12/07 01:50:41;;;;;;;6.17;5.20;;;;;;;5.43;100.00;96502.28;5033257;28;20215;-92
2020/12/07 01:53:11;;;;;;;6.27;3.90;;;;;;;5.41;100.00;96496.38;5033222;28;20218;-91
2020/12/07 01:55:44;;;;;;;8.10;5.80;;;;;;;5.45;100.00;96499.56;5032789;28;20203;-92
2020/12/07 01:58:12;;;;;;;6.70;5.30;;;;;;;5.41;100.00;96504.19;5033139;28;20286;-92
2020/12/07 02:00:42;;;;;;;10.93;7.50;;;;;;;5.37;100.00;96505.38;5033181;28;20655;-92
2020/12/07 02:03:15;;;;;;;5.80;4.83;;;;;;;5.40;100.00;96494.72;5033052;28;20190;-92
2020/12/07 02:05:42;;;;;;;5.13;4.10;;;;;;;5.39;100.00;96498.25;5033084;28;20195;-91
2020/12/07 02:08:14;;;;;;;6.63;5.80;;;;;;;5.34;100.00;96497.81;5032368;28;20289;-92
2020/12/07 02:10:41;;;;;;;7.87;6.83;;;;;;;5.34;100.00;96494.38;5032949;28;20281;-93
2020/12/07 02:13:09;;;;;;;7.83;5.10;;;;;;;5.36;100.00;96492.47;5033038;28;20199;-93
2020/12/07 02:15:37;;;;;;;6.57;4.77;;;;;;;5.34;100.00;96494.38;5032877;28;20242;-92
2020/12/07 02:18:06;;;;;;;7.50;5.17;;;;;;;5.29;100.00;96497.31;5032805;28;20269;-92
2020/12/07 02:20:47;;;;;;;5.57;4.93;;;;;;;5.32;100.00;96499.69;5032987;28;20213;-92
2020/12/07 02:23:14;;;;;;;8.33;6.07;;;;;;;5.32;100.00;96491.88;5032931;28;20210;-93
2020/12/07 02:25:41;;;;;;;9.40;5.77;;;;;;;5.36;100.00;96492.47;5033022;28;20281;-93
2020/12/07 02:28:11;;;;;;;6.93;5.80;;;;;;;5.36;100.00;96511.53;5033012;28;20203;-93
2020/12/07 02:30:37;;;;;;;5.70;5.00;;;;;;;5.36;100.00;96493.28;5032725;28;20287;-93
2020/12/07 02:33:04;;;;;;;6.13;4.87;;;;;;;5.35;100.00;96496.03;5032576;28;20256;-93
2020/12/07 02:35:31;;;;;;;4.93;4.47;;;;;;;5.34;100.00;96496.97;5032839;28;20222;-92
2020/12/07 02:37:59;;;;;;;6.53;5.63;;;;;;;5.28;100.00;96493.06;5032906;28;20202;-92
2020/12/07 02:40:29;;;;;;;6.17;5.10;;;;;;;5.29;100.00;96486.06;5032796;28;20221;-93
2020/12/07 02:42:56;;;;;;;6.67;4.97;;;;;;;5.33;100.00;96490.91;5032913;28;20257;-92
2020/12/07 02:45:23;;;;;;;6.13;5.50;;;;;;;5.28;100.00;96495.66;5036648;28;20425;-94
2020/12/07 02:48:02;;;;;;;8.73;5.97;;;;;;;5.24;100.00;96486.44;5036375;28;20225;-93
2020/12/07 02:50:29;;;;;;;6.47;5.70;;;;;;;5.28;100.00;96490.47;5036228;28;20253;-92
2020/12/07 02:52:56;;;;;;;8.30;5.50;;;;;;;5.31;100.00;96494.63;5036308;28;20199;-91
2020/12/07 02:55:23;;;;;;;7.30;6.27;;;;;;;5.33;100.00;96496.13;5036287;28;20280;-92
2020/12/07 02:57:50;;;;;;;8.30;6.50;;;;;;;5.36;100.00;96493.28;5036302;28;20282;-92
2020/12/07 03:00:20;;;;;;;8.20;5.77;;;;;;;5.28;100.00;96498.28;5036240;28;20202;-92
2020/12/07 03:02:47;;;;;;;7.03;5.90;;;;;;;5.29;100.00;96489.50;5036525;28;20213;-94
2020/12/07 03:05:14;;;;;;;8.63;6.30;;;;;;;5.30;100.00;96487.72;5036420;28;20276;-93
2020/12/07 03:07:41;;;;;;;8.73;5.50;;;;;;;5.20;100.00;96492.84;5036196;28;20230;-93
2020/12/07 03:10:08;;;;;;;8.17;6.10;;;;;;;5.24;100.00;96496.88;5036170;28;20202;-92
2020/12/07 03:12:35;;;;;;;6.07;5.47;;;;;;;5.27;100.00;96495.81;5036108;28;20195;-92
2020/12/07 03:15:03;;;;;;;8.97;7.27;;;;;;;5.26;100.00;96497.56;5035960;28;20317;-92
2020/12/07 03:17:30;;;;;;;9.80;7.97;;;;;;;5.19;100.00;96491.16;5035714;28;20194;-94
2020/12/07 03:20:03;;;;;;;8.43;7.20;;;;;;;5.28;100.00;96494.84;5036024;28;20277;-92
2020/12/07 03:22:33;;;;;;;8.83;5.83;;;;;;;5.23;100.00;96487.41;5035674;28;20198;-92
2020/12/07 03:25:04;;;;;;;9.07;7.13;;;;;;;5.20;100.00;96491.06;5035957;28;20206;-91
2020/12/07 03:27:33;;;;;;;16.23;10.77;;;;;;;5.27;100.00;96483.59;5035699;28;20202;-91
2020/12/07 03:30:01;;;;;;;9.57;6.97;;;;;;;5.22;100.00;96496.16;5035775;28;20670;-93
2020/12/07 03:32:40;;;;;;;11.90;10.07;;;;;;;5.24;100.00;96491.66;5035281;28;20666;-94
2020/12/07 03:35:07;;;;;;;7.30;6.50;;;;;;;5.17;100.00;96498.28;5035791;28;20252;-91
2020/12/07 03:37:34;;;;;;;9.10;6.17;;;;;;;5.23;100.00;96497.81;5035408;28;20289;-93
2020/12/07 03:40:01;;;;;;;9.33;7.03;;;;;;;5.21;100.00;96489.28;5035943;28;20635;-92
2020/12/07 03:42:28;;;;;;;11.03;8.47;;;;;;;5.17;100.00;96485.25;5035557;28;20629;-94
2020/12/07 03:44:55;;;;;;;8.87;6.03;;;;;;;5.15;100.00;96484.53;5035945;28;20209;-93
2020/12/07 03:47:26;;;;;;;8.50;6.57;;;;;;;5.20;100.00;96491.06;5035965;28;20210;-91
2020/12/07 03:49:56;;;;;;;6.27;5.67;;;;;;;5.15;100.00;96502.78;5036166;28;20199;-92
2020/12/07 03:52:25;;;;;;;11.60;6.23;;;;;;;5.20;100.00;96498.06;5035372;28;20677;-91
2020/12/07 03:54:56;;;;;;;5.97;5.37;;;;;;;5.13;100.00;96494.28;5034742;28;20233;-92
2020/12/07 03:57:29;;;;;;;7.97;5.53;;;;;;;5.18;100.00;96492.94;5049699;28;20203;-93
2020/12/07 03:59:56;;;;;;;6.70;5.73;;;;;;;5.17;100.00;96501.72;5056935;28;20205;-92
2020/12/07 04:02:27;;;;;;;8.43;5.97;;;;;;;5.15;100.00;96494.97;5057266;28;20203;-95
2020/12/07 04:05:00;;;;;;;16.03;9.53;;;;;;;5.10;100.00;96497.13;5057253;28;20213;-93
2020/12/07 04:07:28;;;;;;;8.80;6.13;;;;;;;5.07;100.00;96498.19;5055583;28;20209;-91
2020/12/07 04:09:55;;;;;;;7.80;6.77;;;;;;;5.11;100.00;96498.75;5055676;28;20199;-93
2020/12/07 04:12:22;;;;;;;12.27;7.17;;;;;;;5.18;100.00;96497.34;5055933;28;20206;-94
2020/12/07 04:14:49;;;;;;;9.93;8.27;;;;;;;5.11;100.00;96496.97;5056954;28;20179;-93
2020/12/07 04:17:16;;;;;;;7.50;5.87;;;;;;;5.10;100.00;96502.31;5056358;28;20199;-92
2020/12/07 04:19:44;;;;;;;8.20;6.27;;;;;;;5.08;100.00;96485.97;5057221;28;20205;-93
2020/12/07 04:25:13;;;;;;;8.80;7.77;;;;;;;4.92;100.00;96483.75;5050182;28;20202;-93
2020/12/07 04:27:40;;;;;;;9.50;7.20;;;;;;;4.99;100.00;96477.09;5052862;28;20214;-95
2020/12/07 04:30:07;;;;;;;6.73;6.03;;;;;;;4.99;100.00;96477.09;5055163;28;20269;-93
2020/12/07 04:32:34;;;;;;;8.50;6.03;;;;;;;5.00;100.00;96487.41;5054197;28;20226;-93
2020/12/07 04:35:02;;;;;;;8.13;5.63;;;;;;;5.00;100.00;96484.78;5056051;28;20229;-95
2020/12/07 04:37:29;;;;;;;6.97;5.60;;;;;;;4.99;100.00;96485.75;5055429;28;20202;-95
2020/12/07 04:39:59;;;;;;;6.80;5.73;;;;;;;4.96;100.00;96477.34;5053173;28;20201;-93
2020/12/07 04:42:32;;;;;;;7.43;6.43;;;;;;;4.91;100.00;96472.47;5056408;28;20195;-96
2020/12/07 04:44:59;;;;;;;7.80;5.37;;;;;;;4.97;100.00;96464.19;5055468;28;20240;-94
2020/12/07 04:47:26;;;;;;;6.70;5.93;;;;;;;4.90;100.00;96462.19;5055955;28;20171;-94
2020/12/07 04:49:54;;;;;;;6.27;5.53;;;;;;;4.87;100.00;96445.00;5055320;28;20198;-95
2020/12/07 04:52:35;;;;;;;5.10;4.63;;;;;;;4.89;100.00;96448.34;5055279;28;20257;-94
2020/12/07 04:55:06;;;;;;;7.70;4.87;;;;;;;4.91;100.00;96456.84;5053506;28;20210;-95
2020/12/07 04:57:33;;;;;;;6.23;5.17;;;;;;;4.90;100.00;96455.19;5052903;28;20233;-93
2020/12/07 05:02:37;;;;;;;8.07;5.90;;;;;;;4.94;100.00;96454.00;5094296;23;20213;-93
2020/12/07 05:05:05;;;;;;;7.23;5.63;;;;;;;4.95;100.00;96457.44;5077627;28;20182;-93
2020/12/07 05:07:35;;;;;;;4.80;4.40;;;;;;;4.94;100.00;96464.41;5077694;28;20192;-96
2020/12/07 05:10:10;;;;;;;6.83;5.23;;;;;;;4.91;100.00;96466.44;5078392;28;20178;-95
2020/12/07 05:12:40;;;;;;;5.70;5.03;;;;;;;4.93;100.00;96459.34;5073741;28;20201;-94
2020/12/07 05:15:11;;;;;;;6.83;4.70;;;;;;;4.92;100.00;96448.09;5074972;28;20221;-94
2020/12/07 05:17:38;;;;;;;4.63;4.20;;;;;;;4.91;100.00;96454.25;5075414;28;20202;-95
2020/12/07 05:20:06;;;;;;;6.60;5.20;;;;;;;4.86;100.00;96450.34;5078493;28;20186;-94
2020/12/07 05:22:35;;;;;;;6.80;4.97;;;;;;;4.86;100.00;96464.19;5078064;28;20255;-93
2020/12/07 05:25:05;;;;;;;6.50;5.90;;;;;;;4.87;100.00;96459.81;5173163;22;20248;-94
2020/12/07 05:27:33;;;;;;;7.57;6.83;;;;;;;4.86;100.00;96455.56;5111312;28;20222;-93
2020/12/07 05:30:08;;;;;;;7.63;5.80;;;;;;;4.79;100.00;96450.00;5099144;28;20238;-95
2020/12/07 05:32:40;;;;;;;7.97;5.03;;;;;;;4.71;100.00;96453.19;5098159;28;20286;-95
2020/12/07 05:35:13;;;;;;;5.67;4.57;;;;;;;4.76;100.00;96452.84;5097858;28;20554;-95
2020/12/07 05:37:42;;;;;;;5.00;3.90;;;;;;;4.79;100.00;96447.41;5096628;28;20196;-95
2020/12/07 05:40:13;;;;;;;9.17;7.20;;;;;;;4.80;100.00;96448.22;5096831;28;20205;-94
2020/12/07 05:42:41;;;;;;;6.10;5.37;;;;;;;4.77;100.00;96446.66;5097442;28;20197;-93
2020/12/07 05:45:11;;;;;;;7.67;6.57;;;;;;;4.73;100.00;96453.88;5097326;28;20200;-95
2020/12/07 05:47:41;;;;;;;6.20;5.60;;;;;;;4.70;100.00;96453.28;5097600;28;20697;-94
2020/12/07 05:50:11;;;;;;;8.83;6.20;;;;;;;4.75;100.00;96453.78;5097394;28;20188;-95
2020/12/07 05:52:49;;;;;;;7.87;6.27;;;;;;;4.80;100.00;96458.63;5097813;28;20203;-94
2020/12/07 05:55:20;;;;;;;7.10;5.73;;;;;;;4.76;100.00;96452.84;5098750;28;20211;-95
2020/12/07 05:57:49;;;;;;;39.23;23.70;;;;;;;4.81;100.00;96450.69;5098319;28;20206;-94
2020/12/07 06:00:22;;;;;;;33.87;27.03;;;;;;;4.78;100.00;96450.94;5097982;28;20254;-94
2020/12/07 06:02:51;;;;;;;8.80;7.97;;;;;;;4.86;100.00;96448.56;5095765;28;20668;-94
2020/12/07 06:05:20;;;;;;;5.63;4.73;;;;;;;4.76;100.00;96461.47;5097505;28;20188;-93
2020/12/07 06:07:55;;;;;;;5.97;5.27;;;;;;;4.78;100.00;96443.13;5099317;28;20201;-95
2020/12/07 06:10:26;;;;;;;7.07;5.47;;;;;;;4.75;100.00;96448.59;5099139;28;20222;-95
2020/12/07 06:12:56;;;;;;;6.40;4.93;;;;;;;4.73;100.00;96453.88;5097831;28;20200;-94
2020/12/07 06:15:27;;;;;;;5.23;4.53;;;;;;;4.73;100.00;96460.88;5097178;28;20213;-95
2020/12/07 06:17:55;;;;;;;6.10;5.50;;;;;;;4.67;100.00;96459.56;5098007;28;20561;-94
2020/12/07 06:20:30;;;;;;;6.73;6.10;;;;;;;4.67;100.00;96459.56;5102492;28;20197;-95
2020/12/07 06:22:59;;;;;;;6.57;5.87;;;;;;;4.77;100.00;96465.72;5103996;28;20200;-94
2020/12/07 06:25:31;;;;;;;8.67;7.77;;;;;;;4.77;100.00;96467.50;5064663;28;20200;-93
2020/12/07 06:28:03;;;;;;;8.40;6.77;;;;;;;4.67;100.00;96472.56;5064560;28;20201;-93
2020/12/07 06:30:43;;;;;;;9.73;7.40;;;;;;;4.71;100.00;96465.34;5063819;28;20202;-94
2020/12/07 06:33:16;;;;;;;13.97;9.33;;;;;;;4.67;100.00;96474.34;5064608;28;20201;-94
2020/12/07 06:35:45;;;;;;;9.40;7.47;;;;;;;4.66;100.00;96467.50;5061276;28;20654;-94
2020/12/07 06:38:17;;;;;;;5.80;5.00;;;;;;;4.69;100.00;96462.88;5060419;28;20201;-94
2020/12/07 06:40:44;;;;;;;8.63;5.63;;;;;;;4.70;100.00;96458.50;5063454;28;20190;-94
2020/12/07 06:43:21;;;;;;;6.30;5.30;;;;;;;4.71;100.00;96466.22;5064262;28;20212;-95
2020/12/07 06:45:51;;;;;;;9.63;7.10;;;;;;;4.66;100.00;96460.50;5064253;28;20196;-95
2020/12/07 06:48:21;;;;;;;7.97;6.40;;;;;;;4.71;100.00;96457.56;5062400;28;20197;-94
2020/12/07 06:50:51;;;;;;;15.83;11.00;;;;;;;4.70;100.00;96448.91;5065681;28;20197;-95
2020/12/07 06:53:38;;;;;;;7.93;6.43;;;;;;;4.67;100.00;96448.31;5063095;28;20194;-94
2020/12/07 06:56:08;;;;;;;9.83;7.37;;;;;;;4.71;100.00;96436.72;5067097;28;20279;-95
2020/12/07 06:58:39;;;;;;;6.70;5.83;;;;;;;4.72;100.00;96443.59;5074947;28;20193;-96
2020/12/07 07:01:08;;;;;;;6.33;4.87;;;;;;;4.70;100.00;96432.47;5064059;28;20197;-95
2020/12/07 07:03:36;;;;;;;6.53;4.67;;;;;;;4.75;100.00;96440.78;5058637;28;20224;-94
2020/12/07 07:06:10;;;;;;;5.07;4.53;;;;;;;4.75;100.00;96440.78;5058755;28;20320;-94
2020/12/07 07:08:38;;;;;;;5.90;4.97;;;;;;;4.82;100.00;96454.16;5062426;28;20232;-96
2020/12/07 07:11:08;;;;;;;4.83;4.00;;;;;;;4.72;100.00;96454.03;5071733;28;20201;-96
2020/12/07 07:13:35;;;;;;;8.63;7.00;;;;;;;4.76;100.00;96458.03;5069638;28;20209;-96
2020/12/07 07:16:03;;;;;;;6.53;5.27;;;;;;;4.75;100.00;96446.81;5066438;28;20308;-94
2020/12/07 07:18:30;;;;;;;7.07;4.73;;;;;;;4.72;100.00;96446.22;5057266;28;20221;-94
2020/12/07 07:21:03;;;;;;;6.77;5.83;;;;;;;4.75;100.00;96448.59;5056789;28;20271;-92
2020/12/07 07:23:32;;;;;;;7.03;5.37;;;;;;;4.72;100.00;96449.63;5065484;28;20327;-94
2020/12/07 07:26:22;;;;;;;7.67;4.57;;;;;;;4.71;100.00;96447.13;5099250;28;20220;-95
2020/12/07 07:28:49;;;;;;;6.30;5.60;;;;;;;4.67;100.00;96454.34;5109446;28;20203;-94
2020/12/07 07:31:17;;;;;;;7.53;6.73;;;;;;;4.69;100.00;96451.66;5111990;28;20204;-91
2020/12/07 07:33:45;;;;;;;6.27;5.67;;;;;;;4.72;100.00;96443.59;5117331;28;20258;-93
2020/12/07 07:36:22;;;;;;;7.77;5.77;;;;;;;4.66;100.00;96451.88;5116442;28;20268;-96
2020/12/07 07:38:53;;;;;;;11.80;8.03;;;;;;;4.72;100.00;96456.63;5116766;28;20190;-94
2020/12/07 07:41:24;;;;;;;6.73;5.77;;;;;;;4.67;100.00;96456.97;5116796;28;20184;-95
2020/12/07 07:43:51;;;;;;;8.90;7.03;;;;;;;4.69;100.00;96456.84;5118423;28;20188;-96
2020/12/07 07:46:19;;;;;;;6.60;5.97;;;;;;;4.72;100.00;96459.22;5116225;28;20196;-95
2020/12/07 07:48:54;;;;;;;6.67;5.63;;;;;;;4.74;100.00;96462.53;5116177;28;20248;-96
2020/12/07 08:16:29;;;;;;;8.77;6.33;;;;;;;4.83;100.00;96395.91;5058049;28;20224;-95
2020/12/07 08:18:58;;;;;;;5.37;4.87;;;;;;;4.78;100.00;96393.66;5054429;28;20706;-93
2020/12/07 08:21:26;;;;;;;8.77;6.70;;;;;;;4.81;100.00;96398.59;5054542;28;20265;-95
2020/12/07 08:23:55;;;;;;;7.67;6.30;;;;;;;4.81;100.00;96390.78;5055587;28;20243;-95
2020/12/07 08:26:24;;;;;;;11.27;6.43;;;;;;;4.80;100.00;96380.50;5056321;28;20221;-96
2020/12/07 08:28:53;;;;;;;9.13;8.10;;;;;;;4.80;100.00;96380.50;5055190;28;20198;-95
2020/12/07 08:31:21;;;;;;;8.30;5.13;;;;;;;4.85;100.00;96375.75;5053709;28;20305;-96
2020/12/07 08:33:58;;;;;;;7.83;4.87;;;;;;;4.83;100.00;96367.25;5053808;28;20248;-96
2020/12/07 08:36:25;;;;;;;4.47;4.07;;;;;;;4.77;100.00;96379.78;5065706;28;20227;-95
2020/12/07 08:38:53;;;;;;;8.70;4.93;;;;;;;4.78;100.00;96372.84;5076687;28;20600;-95
2020/12/07 08:41:21;;;;;;;6.90;4.60;;;;;;;4.84;100.00;96376.72;5076194;28;20677;-96
2020/12/07 08:43:50;;;;;;;6.57;5.80;;;;;;;4.84;100.00;96361.09;5077031;28;20250;-95
2020/12/07 08:46:19;;;;;;;7.43;4.90;;;;;;;4.82;100.00;96350.81;5077501;28;20193;-96
2020/12/07 08:48:47;;;;;;;7.33;6.03;;;;;;;4.83;100.00;96342.03;5077888;28;20665;-96
2020/12/07 08:51:14;;;;;;;11.03;7.27;;;;;;;4.90;100.00;96329.34;5078908;28;20197;-96
2020/12/07 08:53:41;;;;;;;7.10;6.40;;;;;;;4.89;100.00;96310.31;5081004;28;20654;-95
2020/12/07 08:56:10;;;;;;;7.30;6.40;;;;;;;4.93;100.00;96303.91;5080857;28;20331;-96
2020/12/07 08:58:37;;;;;;;8.90;7.13;;;;;;;4.95;100.00;96316.78;5083112;28;20200;-96
2020/12/07 09:01:05;;;;;;;11.17;8.23;;;;;;;4.90;100.00;96329.34;5084856;28;20220;-96
2020/12/07 09:03:33;;;;;;;11.40;7.63;;;;;;;4.95;100.00;96330.66;5085958;28;20193;-96
2020/12/07 09:06:01;;;;;;;15.17;8.50;;;;;;;4.90;100.00;96330.19;5094215;28;20205;-96
2020/12/07 09:08:28;;;;;;;15.23;12.70;;;;;;;4.93;100.00;96329.13;5092343;28;20189;-96
2020/12/07 09:10:55;;;;;;;15.93;13.63;;;;;;;4.98;100.00;96326.97;5090985;28;20200;-96
2020/12/07 09:13:23;;;;;;;13.07;10.17;;;;;;;4.94;100.00;96321.16;5086941;28;20200;-96
2020/12/07 09:15:51;;;;;;;13.53;9.03;;;;;;;4.87;100.00;96327.81;5090272;28;20229;-96
2020/12/07 09:18:18;;;;;;;12.23;10.37;;;;;;;4.87;100.00;96333.03;5088272;28;20209;-96
2020/12/07 09:20:46;;;;;;;10.97;9.43;;;;;;;4.83;100.00;96325.59;5084974;28;20730;-96
2020/12/07 09:23:13;;;;;;;14.17;10.93;;;;;;;4.88;100.00;96323.44;5093016;28;20193;-96
2020/12/07 09:25:41;;;;;;;14.83;10.20;;;;;;;4.92;100.00;96317.88;5088434;28;20197;-96
2020/12/07 09:28:08;;;;;;;10.03;7.23;;;;;;;4.92;100.00;96317.06;5087799;28;20197;-96
2020/12/07 09:30:36;;;;;;;19.03;13.03;;;;;;;4.95;100.00;96320.25;5088888;28;20197;-96
2020/12/07 09:33:04;;;;;;;11.50;9.57;;;;;;;4.96;100.00;96319.28;5087898;28;20189;-96
2020/12/07 09:35:32;;;;;;;9.20;8.07;;;;;;;4.94;100.00;96305.53;5103816;28;20642;-96
2020/12/07 09:38:00;;;;;;;13.63;8.97;;;;;;;4.92;100.00;96302.25;5108275;28;20207;-96
2020/12/07 09:40:27;;;;;;;11.83;8.67;;;;;;;4.96;100.00;96293.25;5110716;28;20235;-96
2020/12/07 09:42:54;;;;;;;9.90;8.60;;;;;;;4.91;100.00;96297.16;5109127;28;20188;-96
2020/12/07 09:45:23;;;;;;;14.20;8.67;;;;;;;4.92;100.00;96285.81;5107904;28;20188;-96
2020/12/07 09:47:50;;;;;;;12.20;9.00;;;;;;;4.89;100.00;96294.69;5115854;28;20188;-96
2020/12/07 09:50:17;;;;;;;9.57;7.60;;;;;;;4.88;100.00;96277.38;5117979;28;20179;-96
2020/12/07 09:52:44;;;;;;;20.43;13.13;;;;;;;4.98;100.00;96259.25;5116484;28;20189;-96
2020/12/07 09:55:15;;;;;;;12.10;9.20;;;;;;;4.98;100.00;96244.44;5115590;28;20179;-96
2020/12/07 09:57:42;;;;;;;17.00;12.23;;;;;;;4.93;100.00;96246.59;5113370;28;20245;-96
2020/12/07 10:00:09;;;;;;;15.20;9.83;;;;;;;5.00;100.00;96252.97;5111186;28;20665;-96
2020/12/07 10:02:36;;;;;;;13.47;7.70;;;;;;;4.96;100.00;96259.38;5115733;28;20184;-96
2020/12/07 10:05:04;;;;;;;14.13;8.93;;;;;;;4.96;100.00;96261.97;5114898;28;20199;-96
2020/12/07 10:07:31;;;;;;;9.40;8.23;;;;;;;4.98;100.00;96249.63;5113484;28;20207;-96
2020/12/07 10:09:58;;;;;;;12.77;8.93;;;;;;;5.04;100.00;96247.50;5113826;28;20196;-96
2020/12/07 10:12:26;;;;;;;12.03;9.77;;;;;;;4.97;100.00;96255.81;5113557;28;20257;-96
2020/12/07 10:14:54;;;;;;;12.03;6.90;;;;;;;4.86;100.00;96252.44;5116073;28;20200;-96
2020/12/07 10:17:22;;;;;;;12.47;8.70;;;;;;;4.93;100.00;96246.59;5114601;28;20256;-96
2020/12/07 10:19:49;;;;;;;11.83;9.37;;;;;;;4.97;100.00;96245.41;5113787;28;20193;-96
2020/12/07 10:22:16;;;;;;;11.20;8.33;;;;;;;4.88;100.00;96248.72;5110271;28;20207;-96
2020/12/07 10:24:42;;;;;;;10.27;8.40;;;;;;;4.92;100.00;96257.16;5111332;28;20224;-96
2020/12/07 10:27:09;;;;;;;17.77;8.77;;;;;;;4.97;100.00;96253.22;5104521;28;20214;-95
2020/12/07 10:29:38;;;;;;;12.53;9.87;;;;;;;4.92;100.00;96247.56;5099473;28;20660;-96
2020/12/07 10:32:04;;;;;;;13.97;9.80;;;;;;;4.90;100.00;96233.00;5097989;28;20189;-96
2020/12/07 10:34:31;;;;;;;14.00;9.53;;;;;;;4.95;100.00;96243.84;5096869;28;20204;-96
2020/12/07 10:36:59;;;;;;;13.33;10.17;;;;;;;4.89;100.00;96237.38;5095922;28;20244;-96
2020/12/07 10:39:26;;;;;;;14.20;11.43;;;;;;;5.00;100.00;96241.72;5095303;28;20649;-96
2020/12/07 10:41:52;;;;;;;12.80;10.53;;;;;;;4.88;100.00;96233.09;5096754;28;20242;-96
2020/12/07 10:44:19;;;;;;;17.57;12.67;;;;;;;4.89;100.00;96233.97;5095709;28;20192;-96
2020/12/07 10:46:50;;;;;;;12.97;9.07;;;;;;;4.92;100.00;96237.13;5095324;28;20197;-96
2020/12/07 10:49:17;;;;;;;14.00;8.70;;;;;;;4.99;100.00;96238.28;5094667;28;20181;-95
2020/12/07 10:51:46;;;;;;;8.13;7.30;;;;;;;4.86;100.00;96237.63;5094816;28;20251;-96
2020/12/07 10:54:13;;;;;;;11.60;9.63;;;;;;;4.98;100.00;96231.41;5094645;28;20199;-96
2020/12/07 10:56:43;;;;;;;11.37;9.00;;;;;;;4.95;100.00;96221.28;5094892;28;20224;-96
2020/12/07 10:59:10;;;;;;;13.50;8.87;;;;;;;4.84;100.00;96221.28;5074886;28;20200;-95
2020/12/07 11:01:37;;;;;;;11.37;7.87;;;;;;;4.84;100.00;96218.69;5075300;28;20730;-96
2020/12/07 11:04:05;;;;;;;11.63;9.37;;;;;;;4.92;100.00;96216.31;5075543;28;20228;-96
2020/12/07 11:06:34;;;;;;;14.97;12.60;;;;;;;4.93;100.00;96214.53;5079586;28;20193;-96
2020/12/07 11:09:06;;;;;;;12.10;8.30;;;;;;;4.97;100.00;96208.94;5080240;28;20250;-96
2020/12/07 11:11:32;;;;;;;10.87;9.27;;;;;;;4.98;100.00;96215.78;5078835;28;20208;-96
2020/12/07 11:13:59;;;;;;;14.17;12.33;;;;;;;4.95;100.00;96207.38;5077658;28;20216;-95
2020/12/07 11:16:26;;;;;;;16.40;12.77;;;;;;;5.00;100.00;96218.28;5078360;28;20227;-95
2020/12/07 11:18:53;;;;;;;19.60;12.47;;;;;;;5.01;100.00;96215.53;5077684;28;20627;-96
2020/12/07 11:21:21;;;;;;;25.20;13.57;;;;;;;5.01;100.00;96210.31;5078495;28;20223;-96
2020/12/07 11:23:49;;;;;;;19.80;11.03;;;;;;;5.04;100.00;96218.84;5086356;28;20916;-96
2020/12/07 11:26:17;;;;;;;13.83;12.40;;;;;;;4.99;100.00;96208.81;5098227;28;20196;-96
2020/12/07 11:28:44;;;;;;;12.47;9.33;;;;;;;5.04;100.00;96204.03;5097597;28;20250;-95
2020/12/07 11:31:13;;;;;;;14.73;11.33;;;;;;;5.08;100.00;96208.03;5098574;28;20196;-94
2020/12/07 11:33:40;;;;;;;12.07;8.67;;;;;;;5.05;100.00;96203.09;5107520;28;20200;-93
2020/12/07 11:36:07;;;;;;;9.87;7.80;;;;;;;5.06;100.00;96189.13;5119245;28;20302;-95
2020/12/07 11:38:38;;;;;;;10.33;7.37;;;;;;;5.03;100.00;96197.19;5118134;28;20195;-94
2020/12/07 11:41:25;;;;;;;14.13;9.83;;;;;;;5.11;100.00;96192.16;5118615;28;20183;-95
2020/12/07 11:44:05;;;;;;;9.00;7.63;;;;;;;5.11;100.00;96192.16;5119300;28;20198;-96
2020/12/07 11:46:35;;;;;;;14.10;7.27;;;;;;;5.09;100.00;96188.03;5118125;28;20278;-96
2020/12/07 11:49:02;;;;;;;13.87;8.03;;;;;;;5.03;100.00;96199.78;5117716;28;20188;-94
2020/12/07 11:51:29;;;;;;;14.03;8.70;;;;;;;5.08;100.00;96183.78;5117306;28;20195;-95
2020/12/07 11:53:57;;;;;;;13.67;9.20;;;;;;;5.10;100.00;96177.50;5117335;28;20286;-95
2020/12/07 11:56:28;;;;;;;10.80;9.50;;;;;;;5.10;100.00;96179.28;5118832;28;20224;-94
2020/12/07 11:58:54;;;;;;;9.20;7.53;;;;;;;5.10;100.00;96168.84;5107212;28;20620;-93
2020/12/07 12:01:21;;;;;;;14.13;9.83;;;;;;;5.14;100.00;96172.84;5097810;28;20202;-94
2020/12/07 12:03:48;;;;;;;12.00;9.43;;;;;;;5.11;100.00;96166.13;5105296;28;20245;-95
2020/12/07 12:06:21;;;;;;;20.90;12.63;;;;;;;5.12;100.00;96162.53;5099625;28;20196;-94
2020/12/07 12:08:48;;;;;;;27.07;15.90;;;;;;;5.18;100.00;96159.44;5096044;28;20180;-92